Aérodrome :
LOGIN :

S'inscrire | Disclaimer

   EN    FR    IT 

 










Légende :    VFR   VFR Marginal   IFR   IFR Intensif   IFR Très Intensif
Visi : 
Plafond : 
>= 8 km
>= 3000ft
5 à 8 km
1000 à 3000 ft
1500m à 5 km
500 à 1000 ft
800 à 1500m
200 à 500 ft
< 800m
< 200 ft
Symboles :   Orages  Brouillard  Fortes neiges  Fortes précipitations  Vent > 20 kt
SIGMETs :   Divers  Orages  Givrage  Turbulence  Onde Orograph.  Cendres Volcan.






- Altitude de l'aérodrome : 1900 ft
- Code IATA : FEZ


GMFF - Fez Saiss

DERNIER METAR :
  • 271000Z 05011KT CAVOK 30/15 Q1018 NOSIG

METARs EXPIRÉS :
  • 270930Z 04011KT 010V080 CAVOK 29/16 Q1018 NOSIG
  • 270900Z 05011KT 020V090 CAVOK 28/16 Q1018 NOSIG
  • 270830Z 05011KT CAVOK 26/16 Q1018 NOSIG
  • 270800Z 06012KT CAVOK 25/15 Q1018 NOSIG
  • 270730Z 06009KT 040V100 CAVOK 23/16 Q1018 NOSIG

TAF TAF GMFF
Valide du 27 à 06h jusqu'au 28 à 12h UTC


270500Z 2706/2812 10006KT CAVOK
BECMG 2707/2710 06010KT
BECMG 2711/2713 FEW033
PROB40
TEMPO 2714/2720 SCT030 FEW040CB SCT100
BECMG 2721/2723 CAVOK



MET'MAP, la Météo Aéronautique d'un coup d'oeil ! - Copyright ORBIFLY Décembre 2007 - Disclaimer

ORBIFLY MET'MAP TEAM :

Programmation & Développement : Alexandra Zaïnal
Sur une idée originale de : Baudouin d'Aumeries
Assistance à la programmation : Marc-Olivier Méhu
Soutien technique & logistique : Manuel Goepfert

Contact : metmap@orbifly.com




SOURCES & CREDITS :

   NOAA